This is the latest recevied weather packets stored in our database for station/object EDDH. If no packets are shown the sender has not sent any weather packets the latest 10 day(s).
| Time | Temp. | Humidity | Pressure | Rain* | Wind** | Luminosity | Snow |
|---|---|---|---|---|---|---|---|
| 1777587002 | 10° C | 80% | 1030 hPa | 0 mm | - | - | - |
| 1777583401 | 10° C | 80% | 1030 hPa | 0 mm | - | - | - |
| 1777579802 | 12.78° C | 55% | 1030 hPa | 0 mm | - | - | - |
| 1777576201 | 15° C | 45% | 1029 hPa | 0 mm | - | - | - |
| 1777572602 | 17.78° C | 30% | 1029 hPa | 0 mm | - | - | - |
| 1777569001 | 18.89° C | 30% | 1029 hPa | 0 mm | - | - | - |
| 1777565402 | 20° C | 20% | 1030 hPa | 0 mm | - | - | - |
| 1777561802 | 20° C | 20% | 1030 hPa | 0 mm | - | - | - |
| 1777558202 | 20° C | 15% | 1031 hPa | 0 mm | - | - | - |
| 1777554602 | 18.89° C | 20% | 1031 hPa | 0 mm | - | - | - |
| 1777551002 | 18.89° C | 15% | 1032 hPa | 0 mm | - | - | - |
| 1777547412 | 16.67° C | 20% | 1032 hPa | 0 mm | - | - | - |
| 1777543802 | 16.67° C | 20% | 1033 hPa | 0 mm | - | - | - |
| 1777540201 | 15.56° C | 15% | 1033 hPa | 0 mm | - | - | - |
| 1777536602 | 15° C | 30% | 1033 hPa | 0 mm | - | - | - |
| 1777533002 | 11.67° C | 55% | 1033 hPa | 0 mm | - | - | - |
| 1777525802 | 3.89° C | 85% | 1033 hPa | 0 mm | - | - | - |
| 1777522201 | 2.78° C | 90% | 1032 hPa | 0 mm | - | - | - |
| 1777518602 | 2.78° C | 85% | 1032 hPa | 0 mm | - | - | - |
| 1777515002 | 3.89° C | 85% | 1032 hPa | 0 mm | - | - | - |
| 1777511401 | 3.89° C | 85% | 1032 hPa | 0 mm | - | - | - |
| 1777507802 | 5° C | 80% | 1032 hPa | 0 mm | - | - | - |
| 1777504202 | 5.56° C | 75% | 1032 hPa | 0 mm | - | - | - |
| 1777500602 | 5.56° C | 75% | 1031 hPa | 0 mm | - | - | - |
| 1777493402 | 10° C | 45% | 1031 hPa | 0 mm | - | - | - |
* Rain latest 24 hours (hover to see other rain measurements)
** Current wind speed in m/s (hover to see current wind gust speed)